Weather at Cannes-Mandelieu Airport

Public forecast

Using degrees Celsius for public forecast. Weather courtesy of forecast.io.

Current aviation weather report (METAR) for Cannes-Mandelieu Airport

Report is more than 6 hours old.

2022/11/14 15:30 (retrieved 2 years ago)

LFMD 141530Z AUTO VRB03KT 9999 FEW029 BKN056 OVC074 17/11 Q1020 NOSIG

Aviation forecast (TAF) for Cannes-Mandelieu Airport

Forecast is more than 12 hours old.

2023/02/22 19:35 (retrieved 1 year ago)

TAF LFMD 221900Z 2219/2315 CNL